Time;durP1;ratioP1;P1;durP2;ratioP2;P2;SDS_P1;SDS_P2;PMS_P1;PMS_P2;Temp;Humidity;BMP_temperature;BMP_pressure;BME280_temperature;BME280_humidity;BME280_pressure;Samples;Min_cycle;Max_cycle;Signal;HPM_P1;HPM_P2
2021/07/30 00:00:09;;;;;;;15.60;4.38;;;;;;;20.92;62.52;100131.00;4865140;28;120658;-73
2021/07/30 00:02:35;;;;;;;22.02;5.22;;;;;;;20.91;62.25;100129.50;4852772;28;120968;-73
2021/07/30 00:05:00;;;;;;;13.13;4.05;;;;;;;20.90;62.13;100122.44;4883606;28;121606;-73
2021/07/30 00:07:26;;;;;;;17.02;4.40;;;;;;;20.88;61.92;100125.75;4863478;28;123230;-73
2021/07/30 00:09:57;;;;;;;13.43;4.55;;;;;;;20.90;62.40;100119.66;4870583;28;120966;-73
2021/07/30 00:12:22;;;;;;;17.95;4.03;;;;;;;20.90;62.38;100125.22;4867519;28;123353;-73
2021/07/30 00:14:48;;;;;;;15.85;4.30;;;;;;;20.93;62.32;100121.34;4867444;28;121031;-73
2021/07/30 00:17:13;;;;;;;17.45;3.78;;;;;;;20.91;62.64;100124.69;4865791;28;122644;-73
2021/07/30 00:19:39;;;;;;;17.95;4.38;;;;;;;20.92;62.38;100117.06;4852215;28;121173;-73
2021/07/30 00:22:06;;;;;;;18.17;3.95;;;;;;;20.91;62.16;100123.94;4853643;28;120874;-73
2021/07/30 00:24:35;;;;;;;17.20;4.25;;;;;;;20.91;62.30;100118.34;4884135;28;120913;-73
2021/07/30 00:27:01;;;;;;;23.10;4.63;;;;;;;20.92;62.79;100114.28;4867018;28;120629;-73
2021/07/30 00:29:29;;;;;;;15.85;4.00;;;;;;;20.93;62.50;100104.63;4869841;28;121426;-73
2021/07/30 00:31:58;;;;;;;16.92;4.03;;;;;;;20.92;62.49;100114.28;4859713;28;120965;-73
2021/07/30 00:34:26;;;;;;;18.60;4.38;;;;;;;20.93;62.27;100121.34;4857197;28;121551;-73
2021/07/30 00:36:52;;;;;;;18.27;4.45;;;;;;;20.92;62.56;100111.50;4868947;28;121788;-73
2021/07/30 00:39:17;;;;;;;15.50;4.50;;;;;;;20.90;62.51;100125.22;4870356;28;120625;-73
2021/07/30 00:41:43;;;;;;;16.75;4.05;;;;;;;20.90;62.21;100111.28;4870791;28;120708;-73
2021/07/30 00:44:09;;;;;;;19.20;4.05;;;;;;;20.90;62.44;100111.28;4885284;28;122283;-73
2021/07/30 00:46:39;;;;;;;15.90;3.95;;;;;;;20.91;62.58;100107.22;4869230;28;121661;-73
2021/07/30 00:49:05;;;;;;;19.58;4.68;;;;;;;20.89;62.37;100109.78;4869268;28;121217;-73
2021/07/30 00:51:31;;;;;;;20.38;4.43;;;;;;;20.89;62.47;100113.31;4887910;28;120579;-73
2021/07/30 00:53:57;;;;;;;17.85;4.32;;;;;;;20.91;62.27;100121.91;4869362;28;120667;-73
2021/07/30 00:56:23;;;;;;;20.77;4.05;;;;;;;20.91;62.58;100115.56;4859944;28;120927;-72
2021/07/30 00:58:49;;;;;;;22.13;4.45;;;;;;;20.92;62.48;100119.84;4835714;28;121073;-73
2021/07/30 01:01:17;;;;;;;16.88;4.50;;;;;;;20.91;62.35;100112.78;4839685;28;120837;-73
2021/07/30 01:03:45;;;;;;;16.70;4.30;;;;;;;20.91;62.79;100112.78;4868838;28;120781;-73
2021/07/30 01:06:11;;;;;;;23.70;4.82;;;;;;;20.91;62.51;100118.34;4868400;28;123358;-73
2021/07/30 01:08:38;;;;;;;19.50;4.90;;;;;;;20.92;62.56;100106.66;4857669;28;120788;-73
2021/07/30 01:11:03;;;;;;;17.58;4.13;;;;;;;20.90;62.89;100117.59;4874189;28;120532;-73
2021/07/30 01:13:29;;;;;;;17.25;4.32;;;;;;;20.90;62.79;100114.81;4848990;28;121311;-73
2021/07/30 01:15:59;;;;;;;18.80;4.80;;;;;;;20.92;62.87;100125.44;4852391;28;120683;-73
2021/07/30 01:18:24;;;;;;;16.17;4.32;;;;;;;20.94;62.95;100120.81;4851268;28;122099;-73
2021/07/30 01:21:28;;;;;;;22.23;5.03;;;;;;;20.94;62.76;100120.81;4869273;28;121688;-73
2021/07/30 01:23:59;;;;;;;16.58;4.65;;;;;;;20.93;62.80;100122.09;4850444;28;121057;-73
2021/07/30 01:26:25;;;;;;;16.95;4.22;;;;;;;20.94;63.14;100120.81;4862428;28;121064;-73
2021/07/30 01:28:54;;;;;;;16.92;4.10;;;;;;;20.91;63.09;100113.53;4868752;28;121186;-73
2021/07/30 01:31:22;;;;;;;16.38;4.03;;;;;;;20.95;63.13;100116.00;4867671;28;128999;-74
2021/07/30 01:33:47;;;;;;;15.55;4.25;;;;;;;20.96;63.16;100114.72;4871493;28;122341;-74
2021/07/30 01:36:13;;;;;;;16.08;3.97;;;;;;;20.95;63.10;100118.78;4859466;28;121139;-73
2021/07/30 01:38:38;;;;;;;18.77;4.50;;;;;;;20.94;62.84;100109.66;4853446;28;121028;-72
2021/07/30 01:41:10;;;;;;;21.45;4.93;;;;;;;20.91;62.92;100116.31;4856187;28;120556;-72
2021/07/30 01:43:41;;;;;;;14.85;3.85;;;;;;;20.90;63.01;100114.81;4868245;28;121518;-73
2021/07/30 01:46:07;;;;;;;19.02;5.13;;;;;;;20.91;62.82;100113.53;4867883;28;121115;-73
2021/07/30 01:48:36;;;;;;;11.82;3.80;;;;;;;20.92;62.71;100115.03;4853937;28;122108;-73
2021/07/30 01:51:03;;;;;;;13.70;4.30;;;;;;;20.91;62.55;100113.53;4855137;28;121054;-73
2021/07/30 01:53:28;;;;;;;14.55;3.97;;;;;;;20.89;62.61;100113.31;4867486;28;121149;-73
2021/07/30 01:55:55;;;;;;;16.27;3.90;;;;;;;20.91;62.39;100113.53;4873237;28;120244;-73
2021/07/30 01:58:23;;;;;;;13.65;4.22;;;;;;;20.88;62.39;100108.28;4848400;28;120730;-72
2021/07/30 02:00:51;;;;;;;15.07;4.35;;;;;;;20.86;62.50;100108.06;4863790;28;120668;-73
2021/07/30 02:03:17;;;;;;;16.38;3.97;;;;;;;20.82;62.35;100108.41;4878893;28;120428;-73
2021/07/30 02:05:43;;;;;;;21.45;4.45;;;;;;;20.86;62.56;100116.44;4868086;28;123302;-73
2021/07/30 02:08:10;;;;;;;17.33;3.92;;;;;;;20.83;62.58;100110.66;4865187;28;121141;-72
2021/07/30 02:10:40;;;;;;;11.82;3.70;;;;;;;20.82;62.45;100111.94;4865739;28;121815;-72
2021/07/30 02:15:52;;;;;;;11.43;4.05;;;;;;;20.76;62.72;100116.84;4853215;28;120681;-72
2021/07/30 02:18:18;;;;;;;19.25;4.63;;;;;;;20.74;62.25;100111.06;4876943;28;121030;-73
2021/07/30 02:20:45;;;;;;;18.90;4.32;;;;;;;20.74;62.31;100113.84;4848194;28;120917;-72
2021/07/30 02:23:13;;;;;;;18.58;4.10;;;;;;;20.75;62.52;100120.16;4868226;28;120875;-72
2021/07/30 02:25:39;;;;;;;15.80;4.28;;;;;;;20.72;62.81;100116.41;4863824;28;121202;-73
2021/07/30 02:28:05;;;;;;;14.32;4.90;;;;;;;20.74;62.35;100121.44;4839242;28;120710;-72
2021/07/30 02:30:30;;;;;;;13.90;4.38;;;;;;;20.74;62.24;100122.19;4851247;28;121757;-73
2021/07/30 02:32:56;;;;;;;11.52;3.67;;;;;;;20.71;62.46;100119.72;4879209;28;120979;-73
2021/07/30 02:35:22;;;;;;;20.08;4.45;;;;;;;20.69;62.33;100111.91;4866476;28;121066;-73
2021/07/30 02:37:47;;;;;;;16.23;3.75;;;;;;;20.66;62.87;100110.19;4857514;28;120975;-73
2021/07/30 02:40:13;;;;;;;13.10;4.32;;;;;;;20.66;62.66;100115.03;4859176;28;123190;-72
2021/07/30 02:42:41;;;;;;;13.00;4.13;;;;;;;20.62;62.90;100118.13;4842537;28;123111;-73
2021/07/30 02:45:10;;;;;;;14.30;3.60;;;;;;;20.64;62.54;100123.91;4865110;28;121073;-73
2021/07/30 02:47:35;;;;;;;16.95;3.70;;;;;;;20.61;62.65;100122.19;4852089;28;120611;-73
2021/07/30 02:50:04;;;;;;;10.85;3.78;;;;;;;20.62;62.86;100118.13;4867616;28;121385;-73
2021/07/30 02:52:32;;;;;;;13.95;4.22;;;;;;;20.61;62.71;100125.00;4868911;28;120819;-73
2021/07/30 02:54:58;;;;;;;15.60;3.58;;;;;;;20.61;62.79;100124.22;4874967;28;121744;-73
2021/07/30 02:57:23;;;;;;;14.75;4.43;;;;;;;20.59;63.04;100118.44;4868306;28;121743;-73
2021/07/30 02:59:49;;;;;;;14.32;3.30;;;;;;;20.59;62.90;100116.41;4849888;28;121853;-73
2021/07/30 03:02:15;;;;;;;11.70;3.63;;;;;;;20.59;62.87;100121.22;4878758;28;120475;-73
2021/07/30 03:04:42;;;;;;;17.80;4.13;;;;;;;20.61;62.73;100118.66;4866657;28;120689;-72
2021/07/30 03:07:10;;;;;;;17.48;4.20;;;;;;;20.59;62.90;100121.97;4867081;28;120573;-73
2021/07/30 03:09:38;;;;;;;15.30;3.70;;;;;;;20.59;62.43;100121.22;4867512;28;120051;-72
2021/07/30 03:12:05;;;;;;;13.30;3.85;;;;;;;20.58;63.04;100122.50;4832687;28;120254;-72
2021/07/30 03:14:30;;;;;;;10.27;3.40;;;;;;;20.57;62.73;100118.94;4849522;28;120269;-72
2021/07/30 03:16:56;;;;;;;12.73;3.67;;;;;;;20.56;62.95;100117.44;4866284;28;121715;-73
2021/07/30 03:19:22;;;;;;;10.57;3.90;;;;;;;20.58;62.96;100114.13;4862543;28;121830;-73
2021/07/30 03:21:47;;;;;;;16.05;3.97;;;;;;;20.60;62.83;100115.13;4884324;28;120024;-73
2021/07/30 03:24:13;;;;;;;11.52;3.88;;;;;;;20.63;62.98;100122.41;4866184;28;120643;-72
2021/07/30 03:26:38;;;;;;;15.25;4.32;;;;;;;20.60;62.72;100117.16;4834475;28;120320;-73
2021/07/30 03:29:05;;;;;;;12.05;3.70;;;;;;;20.61;63.16;100116.63;4869381;28;120542;-73
2021/07/30 03:31:32;;;;;;;16.98;4.03;;;;;;;20.60;62.99;100112.34;4855493;28;120667;-73
2021/07/30 03:33:58;;;;;;;13.45;3.75;;;;;;;20.58;62.73;100112.09;4855223;28;120327;-73
2021/07/30 03:36:24;;;;;;;13.90;3.42;;;;;;;20.60;63.12;100112.34;4849803;28;122250;-72
2021/07/30 03:38:52;;;;;;;18.02;4.07;;;;;;;20.63;63.06;100122.41;4865902;28;123779;-72
2021/07/30 03:41:17;;;;;;;11.35;3.53;;;;;;;20.61;63.02;100119.41;4864264;28;120398;-74
2021/07/30 03:43:45;;;;;;;12.02;3.80;;;;;;;20.62;63.03;100117.38;4872167;28;120207;-73
2021/07/30 03:46:11;;;;;;;11.50;3.63;;;;;;;20.63;63.03;100111.28;4836817;28;121546;-73
2021/07/30 03:48:36;;;;;;;14.00;3.95;;;;;;;20.64;63.12;100123.91;4865198;28;120347;-73
2021/07/30 03:51:02;;;;;;;13.77;3.80;;;;;;;20.63;63.23;100122.41;4882543;28;121212;-73
2021/07/30 03:53:28;;;;;;;10.20;3.78;;;;;;;20.64;63.02;100118.34;4865375;28;120249;-73
2021/07/30 03:55:53;;;;;;;13.98;3.30;;;;;;;20.65;62.79;100116.31;4864428;28;120572;-73
2021/07/30 03:58:19;;;;;;;16.77;3.67;;;;;;;20.63;62.74;100130.03;4868205;28;121898;-73
2021/07/30 04:00:45;;;;;;;9.20;3.33;;;;;;;20.62;63.18;100126.50;4846794;28;120951;-72
2021/07/30 04:03:10;;;;;;;9.63;3.25;;;;;;;20.61;62.72;100125.00;4863790;28;121156;-73
2021/07/30 04:05:36;;;;;;;13.93;3.45;;;;;;;20.60;62.47;100123.47;4875795;28;121163;-72
2021/07/30 04:08:04;;;;;;;14.30;3.72;;;;;;;20.64;62.69;100125.94;4870335;28;120067;-73
2021/07/30 04:10:32;;;;;;;11.85;3.00;;;;;;;20.63;63.09;100125.19;4869399;28;120315;-73
2021/07/30 04:12:58;;;;;;;11.15;3.50;;;;;;;20.67;63.00;100127.66;4867713;28;120897;-73
2021/07/30 04:15:24;;;;;;;12.23;3.30;;;;;;;20.66;62.94;100123.38;4853517;28;123083;-73
2021/07/30 04:17:50;;;;;;;10.00;3.60;;;;;;;20.70;62.92;100127.34;4868916;28;122663;-74
2021/07/30 04:20:16;;;;;;;10.63;2.92;;;;;;;20.74;62.90;100132.59;4871341;28;120707;-73
2021/07/30 04:22:41;;;;;;;11.63;3.08;;;;;;;20.73;62.88;100125.53;4870415;28;120223;-72
2021/07/30 04:25:08;;;;;;;9.50;3.33;;;;;;;20.77;63.29;100139.88;4858680;28;121208;-73
2021/07/30 04:27:34;;;;;;;11.32;3.45;;;;;;;20.74;62.76;100125.00;4866662;28;120714;-72
2021/07/30 04:29:59;;;;;;;16.38;3.30;;;;;;;20.75;63.00;100125.75;4868072;28;120800;-73
2021/07/30 04:32:27;;;;;;;11.55;3.28;;;;;;;20.77;62.98;100129.50;4871315;28;120957;-72
2021/07/30 04:34:53;;;;;;;10.10;2.88;;;;;;;20.79;62.92;100126.16;4869203;28;121528;-73
2021/07/30 04:37:18;;;;;;;11.00;2.83;;;;;;;20.84;63.07;100128.88;4851899;28;122160;-73
2021/07/30 04:39:44;;;;;;;9.55;3.13;;;;;;;20.85;62.80;100121.25;4838628;28;120858;-73
2021/07/30 04:42:10;;;;;;;13.13;3.35;;;;;;;20.87;63.02;100120.72;4866815;28;121180;-73
2021/07/30 04:44:35;;;;;;;9.82;2.88;;;;;;;20.88;62.74;100125.75;4869007;28;121571;-73
2021/07/30 04:47:03;;;;;;;10.15;3.22;;;;;;;20.87;62.64;100129.09;4870452;28;121221;-73
2021/07/30 04:49:29;;;;;;;11.65;3.05;;;;;;;20.89;62.46;100130.03;4870962;28;121020;-73
2021/07/30 04:51:55;;;;;;;13.85;3.58;;;;;;;20.91;62.40;100126.72;4868581;28;120487;-73
2021/07/30 04:54:20;;;;;;;8.23;2.90;;;;;;;20.91;62.52;100135.09;4869283;28;120981;-72
2021/07/30 04:56:46;;;;;;;10.20;3.25;;;;;;;20.95;62.49;100132.72;4868279;28;122435;-72
2021/07/30 04:59:11;;;;;;;12.18;3.25;;;;;;;20.94;62.41;100129.19;4869662;28;122176;-72
2021/07/30 05:01:43;;;;;;;8.15;3.00;;;;;;;20.96;62.06;100131.44;4860984;28;124345;-73
2021/07/30 05:04:09;;;;;;;10.30;3.00;;;;;;;20.99;62.37;100131.09;4877739;28;120709;-73
2021/07/30 05:06:35;;;;;;;13.10;3.05;;;;;;;20.99;62.29;100133.16;4864739;28;127446;-73
2021/07/30 05:09:01;;;;;;;9.95;3.38;;;;;;;20.99;62.02;100133.91;4832728;28;121642;-72
2021/07/30 05:11:27;;;;;;;14.02;3.40;;;;;;;20.97;61.95;100132.94;4885157;28;121462;-73
2021/07/30 05:13:54;;;;;;;10.60;2.67;;;;;;;21.02;61.81;100137.66;4870592;28;120747;-73
2021/07/30 05:16:20;;;;;;;10.93;2.85;;;;;;;21.04;61.93;100144.19;4878971;28;121138;-72
2021/07/30 05:18:46;;;;;;;14.02;2.65;;;;;;;21.07;62.13;100139.59;4869052;28;121163;-72
2021/07/30 05:21:14;;;;;;;11.20;2.83;;;;;;;21.08;62.08;100138.31;4868480;28;121418;-73
2021/07/30 05:23:41;;;;;;;8.15;2.67;;;;;;;21.10;62.28;100139.28;4864636;28;123228;-73
2021/07/30 05:26:07;;;;;;;8.55;2.72;;;;;;;21.12;62.40;100136.69;4836811;28;121745;-73
2021/07/30 05:28:34;;;;;;;12.57;3.00;;;;;;;21.14;61.89;100136.16;4851746;28;121499;-73
2021/07/30 05:31:00;;;;;;;9.05;3.08;;;;;;;21.18;62.15;100144.19;4873666;28;121120;-72
2021/07/30 05:33:27;;;;;;;9.98;2.40;;;;;;;21.20;61.92;100138.81;4866324;28;121411;-73
2021/07/30 05:35:54;;;;;;;10.98;2.90;;;;;;;21.23;61.83;100149.66;4850059;28;121591;-73
2021/07/30 05:38:20;;;;;;;9.25;2.90;;;;;;;21.25;61.82;100147.09;4860662;28;122293;-73
2021/07/30 05:40:46;;;;;;;9.13;2.72;;;;;;;21.27;62.29;100141.00;4853293;28;120751;-73
2021/07/30 05:43:11;;;;;;;10.65;3.30;;;;;;;21.27;62.22;100138.94;4868699;28;122086;-72
2021/07/30 05:45:37;;;;;;;9.07;2.80;;;;;;;21.27;62.04;100143.78;4884732;28;120783;-73
2021/07/30 05:48:07;;;;;;;12.20;3.45;;;;;;;21.25;62.41;100144.31;4881171;28;121171;-73
2021/07/30 05:50:33;;;;;;;10.82;2.92;;;;;;;21.23;62.54;100144.06;4864300;28;121425;-73
2021/07/30 05:52:58;;;;;;;12.00;3.25;;;;;;;21.25;63.00;100141.53;4868954;28;120880;-72
2021/07/30 05:55:26;;;;;;;11.52;3.60;;;;;;;21.26;62.59;100137.44;4857514;28;121429;-72
2021/07/30 05:57:52;;;;;;;12.93;3.13;;;;;;;21.24;62.13;100140.03;4874269;28;121357;-73
2021/07/30 06:00:18;;;;;;;10.80;3.05;;;;;;;21.23;62.40;100138.50;4879368;28;121605;-73
2021/07/30 06:02:43;;;;;;;11.75;3.67;;;;;;;21.23;62.61;100135.72;4867630;28;122619;-72
2021/07/30 06:05:09;;;;;;;10.20;2.47;;;;;;;21.28;62.35;100139.69;4867259;28;121131;-72
2021/07/30 06:07:37;;;;;;;12.68;3.17;;;;;;;21.29;62.26;100146.78;4868163;28;121039;-73
2021/07/30 06:10:06;;;;;;;10.30;3.10;;;;;;;21.32;62.03;100140.16;4865732;28;121279;-72
2021/07/30 06:12:31;;;;;;;9.30;3.17;;;;;;;21.37;61.96;100137.25;4866733;28;120924;-72
2021/07/30 06:14:57;;;;;;;11.93;3.47;;;;;;;21.41;62.35;100134.88;4866266;28;121636;-74
2021/07/30 06:17:22;;;;;;;10.50;3.20;;;;;;;21.43;61.96;100129.50;4866750;28;121396;-73
2021/07/30 06:19:50;;;;;;;9.45;2.90;;;;;;;21.50;61.82;100135.69;4868980;28;124037;-73
2021/07/30 06:22:16;;;;;;;7.85;3.03;;;;;;;21.53;62.05;100140.19;4868850;28;124525;-73
2021/07/30 06:24:42;;;;;;;9.13;2.90;;;;;;;21.58;61.49;100139.34;4883678;28;121195;-73
2021/07/30 06:27:07;;;;;;;18.00;3.97;;;;;;;21.62;61.31;100139.78;4850383;28;121610;-73
2021/07/30 06:29:36;;;;;;;10.55;3.38;;;;;;;21.64;61.73;100142.75;4876969;28;121413;-73
2021/07/30 06:32:02;;;;;;;9.75;3.08;;;;;;;21.62;61.43;100139.78;4865391;28;121821;-73
2021/07/30 06:34:27;;;;;;;14.45;3.03;;;;;;;21.63;61.07;100142.00;4848350;28;121949;-73
2021/07/30 06:36:56;;;;;;;10.27;3.28;;;;;;;21.63;60.72;100146.84;4865732;28;122001;-73
2021/07/30 06:39:22;;;;;;;12.85;3.05;;;;;;;21.63;60.72;100155.97;4868837;28;121264;-73
2021/07/30 06:41:48;;;;;;;9.15;2.67;;;;;;;21.63;60.65;100144.06;4863387;28;121923;-72
2021/07/30 06:44:13;;;;;;;8.90;3.10;;;;;;;21.66;60.45;100146.50;4866964;28;121181;-73
2021/07/30 06:46:39;;;;;;;9.10;2.95;;;;;;;21.67;60.79;100147.25;4848023;28;122183;-73
2021/07/30 06:49:05;;;;;;;11.00;3.08;;;;;;;21.70;60.90;100151.75;4857144;28;121877;-73
2021/07/30 06:51:30;;;;;;;10.52;3.05;;;;;;;21.73;60.42;100157.00;4857659;28;121586;-73
2021/07/30 06:53:56;;;;;;;8.15;2.85;;;;;;;21.69;60.52;100150.25;4851048;28;123993;-73
2021/07/30 06:56:25;;;;;;;8.02;2.70;;;;;;;21.69;60.39;100153.06;4836578;28;123395;-73
2021/07/30 06:58:50;;;;;;;9.95;2.80;;;;;;;21.66;60.20;100157.69;4868591;28;121285;-73
2021/07/30 07:01:16;;;;;;;10.70;2.72;;;;;;;21.68;60.55;100149.50;4832288;28;122083;-73
2021/07/30 07:03:41;;;;;;;6.70;2.90;;;;;;;21.66;60.61;100152.09;4863639;28;121444;-73
2021/07/30 07:06:15;;;;;;;12.10;3.22;;;;;;;21.68;60.47;100155.09;4862054;28;121664;-73
2021/07/30 07:08:40;;;;;;;7.13;2.80;;;;;;;21.66;60.05;100152.09;4875436;28;121322;-73
2021/07/30 07:11:06;;;;;;;9.90;2.90;;;;;;;21.64;60.08;100148.34;4864631;28;121256;-74
2021/07/30 07:13:32;;;;;;;10.25;2.70;;;;;;;21.60;60.08;100154.25;4867836;28;121675;-74
2021/07/30 07:15:57;;;;;;;8.95;2.70;;;;;;;21.61;59.91;100152.22;4882349;28;122635;-73
2021/07/30 07:18:25;;;;;;;7.38;2.60;;;;;;;21.63;60.02;100153.19;4871933;28;121859;-74
2021/07/30 07:20:57;;;;;;;8.43;3.03;;;;;;;21.68;60.52;100148.75;4866317;28;121454;-73
2021/07/30 07:23:24;;;;;;;10.95;2.70;;;;;;;21.69;59.85;100153.06;4866324;28;121880;-74
2021/07/30 07:25:53;;;;;;;10.45;2.85;;;;;;;21.70;59.48;100146.94;4878065;28;121729;-73
2021/07/30 07:28:19;;;;;;;8.48;3.20;;;;;;;21.74;59.72;100149.38;4865344;28;121746;-73
2021/07/30 07:30:45;;;;;;;5.60;2.85;;;;;;;21.79;60.28;100142.19;4869022;28;122847;-73
2021/07/30 07:33:10;;;;;;;9.95;3.00;;;;;;;21.83;59.78;100142.59;4880767;28;127513;-73
2021/07/30 07:35:36;;;;;;;8.32;2.85;;;;;;;21.89;60.38;100149.56;4835057;28;122137;-73
2021/07/30 07:38:06;;;;;;;7.70;3.15;;;;;;;21.95;60.09;100155.75;4868592;28;121789;-72
2021/07/30 07:40:32;;;;;;;6.85;2.80;;;;;;;21.97;59.77;100163.59;4869563;28;121652;-73
2021/07/30 07:42:59;;;;;;;10.55;3.45;;;;;;;21.94;59.42;100147.94;4868804;28;122564;-73
2021/07/30 07:45:25;;;;;;;7.88;3.20;;;;;;;21.95;59.33;100152.97;4868547;28;122275;-72
2021/07/30 07:47:51;;;;;;;7.07;2.70;;;;;;;22.00;59.43;100148.53;4874422;28;123428;-72
2021/07/30 07:50:18;;;;;;;10.30;3.15;;;;;;;22.01;59.23;100147.28;4869098;28;121477;-72
2021/07/30 07:52:57;;;;;;;9.20;3.00;;;;;;;21.95;59.76;100143.84;4870105;28;121881;-72
2021/07/30 07:55:22;;;;;;;9.02;2.60;;;;;;;21.96;59.40;100148.13;4865261;28;124323;-73
2021/07/30 07:57:48;;;;;;;6.90;2.50;;;;;;;21.96;59.90;100150.94;4867155;28;121580;-73
2021/07/30 08:00:14;;;;;;;6.95;2.75;;;;;;;21.97;59.41;100144.06;4868836;28;121500;-72
2021/07/30 08:02:40;;;;;;;6.80;2.45;;;;;;;22.10;59.62;100155.22;4873600;28;122321;-72
2021/07/30 08:05:06;;;;;;;7.75;2.15;;;;;;;22.21;58.91;100143.75;4850570;28;122860;-73
2021/07/30 08:07:31;;;;;;;8.50;2.47;;;;;;;22.33;58.39;100144.25;4864446;28;122445;-72
2021/07/30 08:09:57;;;;;;;5.43;2.47;;;;;;;22.44;57.83;100163.53;4850376;28;127296;-73
2021/07/30 08:12:23;;;;;;;4.55;2.20;;;;;;;22.47;57.28;100153.28;4882278;28;123300;-73
2021/07/30 08:14:51;;;;;;;5.00;2.25;;;;;;;22.50;57.07;100150.19;4864557;28;124461;-73
2021/07/30 08:17:19;;;;;;;7.07;2.28;;;;;;;22.55;56.67;100143.69;4873999;28;121991;-74
2021/07/30 08:19:51;;;;;;;6.78;2.60;;;;;;;22.53;56.69;100151.88;4867691;28;121709;-73
2021/07/30 08:22:16;;;;;;;9.43;2.63;;;;;;;22.54;57.17;100153.38;4864206;28;122262;-73
2021/07/30 08:24:43;;;;;;;9.10;2.60;;;;;;;22.57;57.92;100159.91;4881495;28;121761;-72
2021/07/30 08:27:10;;;;;;;6.35;2.67;;;;;;;22.64;58.13;100159.22;4880403;28;123583;-72
2021/07/30 08:29:36;;;;;;;4.95;2.05;;;;;;;22.65;57.52;100157.91;4868507;28;121792;-74
2021/07/30 08:32:02;;;;;;;6.47;2.33;;;;;;;22.73;57.48;100166.38;4865411;28;122900;-75
2021/07/30 08:34:28;;;;;;;6.85;2.72;;;;;;;22.79;57.87;100164.19;4857084;28;121870;-72
2021/07/30 08:36:54;;;;;;;7.50;2.67;;;;;;;22.81;57.23;100170.75;4867593;28;121881;-73
2021/07/30 08:39:20;;;;;;;9.20;2.75;;;;;;;22.79;57.22;100183.75;4864517;28;121626;-73
2021/07/30 08:41:49;;;;;;;8.02;3.00;;;;;;;22.72;56.95;100187.25;4851369;28;122000;-72
2021/07/30 08:44:15;;;;;;;8.60;3.10;;;;;;;22.70;56.34;100173.03;4866056;28;121910;-72
2021/07/30 08:46:41;;;;;;;10.48;3.03;;;;;;;22.62;56.68;100179.34;4873160;28;126538;-73
2021/07/30 08:49:09;;;;;;;7.38;2.80;;;;;;;22.62;56.74;100186.97;4851879;28;123473;-73
2021/07/30 08:51:38;;;;;;;11.27;2.97;;;;;;;22.58;56.79;100192.91;4867947;28;121992;-73
2021/07/30 08:54:03;;;;;;;9.75;2.97;;;;;;;22.58;56.96;100197.75;4858650;28;121575;-73
2021/07/30 08:56:29;;;;;;;8.02;3.35;;;;;;;22.54;56.67;100181.31;4875775;28;122692;-73
2021/07/30 08:58:55;;;;;;;8.48;3.05;;;;;;;22.53;56.38;100202.19;4860474;28;121957;-73
2021/07/30 09:01:23;;;;;;;6.68;3.20;;;;;;;22.53;56.92;100196.59;4865424;28;123800;-73
2021/07/30 09:03:48;;;;;;;6.35;2.70;;;;;;;22.54;56.82;100194.56;4866681;28;121976;-73
2021/07/30 09:06:17;;;;;;;10.25;2.90;;;;;;;22.55;56.51;100204.44;4833230;28;121779;-72
2021/07/30 09:08:44;;;;;;;9.43;2.70;;;;;;;22.56;56.06;100189.16;4846812;28;122382;-73
2021/07/30 09:11:26;;;;;;;9.32;2.95;;;;;;;22.58;57.05;100192.91;4856262;28;122155;-73
2021/07/30 09:13:52;;;;;;;10.27;3.55;;;;;;;22.62;56.84;100187.72;4866521;28;121733;-72
2021/07/30 09:16:18;;;;;;;8.25;2.58;;;;;;;22.63;56.43;100194.81;4866270;28;121589;-72
2021/07/30 09:18:46;;;;;;;10.10;3.03;;;;;;;22.64;56.71;100201.91;4865861;28;122115;-73
2021/07/30 09:21:30;;;;;;;8.40;2.95;;;;;;;22.72;56.05;100212.41;4866875;28;122717;-73
2021/07/30 09:24:04;;;;;;;7.93;2.80;;;;;;;22.76;56.32;100201.63;4853632;28;121759;-73
2021/07/30 09:26:43;;;;;;;6.18;2.70;;;;;;;22.84;56.35;100202.47;4855087;28;121630;-73
2021/07/30 09:29:18;;;;;;;6.90;3.08;;;;;;;22.93;56.18;100201.97;4872077;28;122262;-72
2021/07/30 09:31:44;;;;;;;7.38;2.30;;;;;;;23.00;56.51;100209.66;4880263;28;122042;-72
2021/07/30 09:34:14;;;;;;;5.90;2.40;;;;;;;23.06;56.25;100203.94;4865997;28;121992;-72
2021/07/30 09:36:42;;;;;;;10.05;2.33;;;;;;;23.11;55.46;100203.78;4864762;28;122058;-73
2021/07/30 09:39:07;;;;;;;9.63;2.58;;;;;;;23.17;56.15;100207.16;4867198;28;122341;-72
2021/07/30 09:41:33;;;;;;;7.38;2.47;;;;;;;23.24;55.98;100200.88;4882197;28;121705;-73
2021/07/30 09:44:07;;;;;;;8.05;2.58;;;;;;;23.42;55.40;100187.94;4865925;28;122000;-73
2021/07/30 09:46:33;;;;;;;;;;;;;;;23.49;55.98;100198.41;4868300;28;121940;-73
2021/07/30 09:48:59;;;;;;;8.05;2.60;;;;;;;23.51;55.35;100206.25;4868262;28;121820;-73
2021/07/30 09:51:26;;;;;;;8.98;2.10;;;;;;;23.52;55.49;100190.94;4870953;28;122551;-73
2021/07/30 09:53:52;;;;;;;7.18;2.00;;;;;;;23.60;54.49;100205.00;4865178;28;121955;-73
2021/07/30 09:56:21;;;;;;;5.40;2.10;;;;;;;23.69;54.62;100196.84;4861716;28;121906;-73
2021/07/30 09:58:47;;;;;;;4.60;1.70;;;;;;;23.64;54.24;100178.13;4866819;28;121913;-73
2021/07/30 10:01:18;;;;;;;7.40;1.98;;;;;;;23.74;54.03;100197.97;4867026;28;121894;-73
2021/07/30 10:03:46;;;;;;;5.75;2.38;;;;;;;23.74;54.21;100193.13;4866346;28;121994;-73
2021/07/30 10:06:13;;;;;;;4.80;2.50;;;;;;;23.78;53.50;100195.56;4840062;28;121753;-73
2021/07/30 10:08:41;;;;;;;7.43;1.80;;;;;;;23.86;53.96;100194.28;4849061;28;122092;-73
2021/07/30 10:11:12;;;;;;;4.45;1.90;;;;;;;23.91;53.75;100200.28;4881661;28;122167;-72
2021/07/30 10:13:50;;;;;;;6.88;2.47;;;;;;;23.91;52.71;100203.09;4882746;28;122391;-72
2021/07/30 10:16:17;;;;;;;4.78;2.08;;;;;;;23.94;53.52;100196.38;4854193;28;124824;-73
2021/07/30 10:18:47;;;;;;;9.10;1.90;;;;;;;23.92;51.87;100201.78;4865074;28;123961;-73
2021/07/30 10:21:17;;;;;;;5.18;2.03;;;;;;;23.83;51.87;100209.38;4866634;28;123826;-72
2021/07/30 10:23:45;;;;;;;6.65;2.00;;;;;;;23.75;51.46;100194.63;4867280;28;122519;-73
2021/07/30 10:26:16;;;;;;;11.07;2.40;;;;;;;23.71;51.32;100199.09;4865405;28;121770;-73
2021/07/30 10:28:42;;;;;;;5.80;1.90;;;;;;;23.63;50.74;100196.25;4865963;28;122489;-73
2021/07/30 10:31:10;;;;;;;2.95;1.42;;;;;;;23.56;50.63;100191.38;4882763;28;121916;-73
2021/07/30 10:33:37;;;;;;;3.60;1.50;;;;;;;23.51;51.22;100198.59;4881304;28;122150;-72
2021/07/30 10:36:07;;;;;;;6.65;1.60;;;;;;;23.51;50.93;100197.84;4868065;28;122159;-73
2021/07/30 10:38:34;;;;;;;4.20;1.20;;;;;;;23.55;50.51;100178.66;4855001;28;123761;-72
2021/07/30 10:41:08;;;;;;;7.18;2.08;;;;;;;23.64;51.70;100186.53;4865928;28;122019;-73
2021/07/30 10:43:50;;;;;;;6.45;1.85;;;;;;;23.71;51.21;100180.25;4867945;28;122018;-73
2021/07/30 10:46:20;;;;;;;5.50;1.58;;;;;;;23.79;50.56;100191.47;4866660;28;121745;-72
2021/07/30 10:48:47;;;;;;;7.28;1.80;;;;;;;23.80;50.22;100206.97;4854383;28;121857;-72
2021/07/30 10:51:19;;;;;;;7.43;2.10;;;;;;;23.73;49.94;100208.44;4868358;28;127111;-73
2021/07/30 10:53:49;;;;;;;8.05;2.30;;;;;;;23.71;50.99;100208.25;4878179;28;122974;-73
2021/07/30 10:56:14;;;;;;;8.18;2.20;;;;;;;23.67;50.42;100205.06;4863950;28;123470;-73
2021/07/30 10:58:40;;;;;;;8.95;2.33;;;;;;;23.63;50.91;100201.09;4868912;28;122011;-73
2021/07/30 11:01:10;;;;;;;3.47;1.50;;;;;;;23.63;50.75;100196.25;4847957;28;124903;-73
2021/07/30 11:03:51;;;;;;;3.77;1.57;;;;;;;23.64;50.74;100213.78;4849926;28;122775;-73
2021/07/30 11:06:22;;;;;;;5.78;2.00;;;;;;;23.64;50.62;100208.94;4869831;28;122267;-73
2021/07/30 11:09:00;;;;;;;8.25;1.70;;;;;;;23.62;50.46;100200.34;4869232;28;122477;-73
2021/07/30 11:11:41;;;;;;;5.45;1.98;;;;;;;23.58;50.73;100197.16;4879390;28;122122;-73
2021/07/30 11:14:11;;;;;;;5.60;1.85;;;;;;;23.57;51.05;100209.66;4869766;28;122168;-73